sensor_id;sensor_type;location;lat;lon;timestamp;temperature;humidity
13198;DHT22;6664;52.514;13.440;2023-08-24T00:02:21;17.00;51.40
13198;DHT22;6664;52.514;13.440;2023-08-24T00:05:07;17.00;51.30
13198;DHT22;6664;52.514;13.440;2023-08-24T00:07:52;17.10;51.70
13198;DHT22;6664;52.514;13.440;2023-08-24T00:10:38;17.00;51.50
13198;DHT22;6664;52.514;13.440;2023-08-24T00:13:23;16.90;51.80
13198;DHT22;6664;52.514;13.440;2023-08-24T00:16:11;17.00;52.70
13198;DHT22;6664;52.514;13.440;2023-08-24T00:18:57;17.00;52.70
13198;DHT22;6664;52.514;13.440;2023-08-24T00:21:43;16.90;52.60
13198;DHT22;6664;52.514;13.440;2023-08-24T00:24:28;16.90;52.60
13198;DHT22;6664;52.514;13.440;2023-08-24T00:27:14;16.90;53.30
13198;DHT22;6664;52.514;13.440;2023-08-24T00:30:02;16.80;53.90
13198;DHT22;6664;52.514;13.440;2023-08-24T00:32:48;16.80;54.40
13198;DHT22;6664;52.514;13.440;2023-08-24T00:35:38;16.70;55.10
13198;DHT22;6664;52.514;13.440;2023-08-24T00:38:23;16.70;55.50
13198;DHT22;6664;52.514;13.440;2023-08-24T00:41:12;16.70;55.70
13198;DHT22;6664;52.514;13.440;2023-08-24T00:43:57;16.70;56.10
13198;DHT22;6664;52.514;13.440;2023-08-24T00:46:43;16.60;56.70
13198;DHT22;6664;52.514;13.440;2023-08-24T00:49:29;16.60;57.10
13198;DHT22;6664;52.514;13.440;2023-08-24T00:52:15;16.60;57.50
13198;DHT22;6664;52.514;13.440;2023-08-24T00:55:01;16.60;57.60
13198;DHT22;6664;52.514;13.440;2023-08-24T00:57:49;16.60;57.70
13198;DHT22;6664;52.514;13.440;2023-08-24T01:00:37;16.60;57.80
13198;DHT22;6664;52.514;13.440;2023-08-24T01:03:25;16.60;57.80
13198;DHT22;6664;52.514;13.440;2023-08-24T01:06:11;16.60;57.90
13198;DHT22;6664;52.514;13.440;2023-08-24T01:08:56;16.60;58.60
13198;DHT22;6664;52.514;13.440;2023-08-24T01:15:42;16.70;58.40
13198;DHT22;6664;52.514;13.440;2023-08-24T01:18:32;16.80;57.90
13198;DHT22;6664;52.514;13.440;2023-08-24T01:21:19;16.90;57.50
13198;DHT22;6664;52.514;13.440;2023-08-24T01:26:55;17.00;56.30
13198;DHT22;6664;52.514;13.440;2023-08-24T01:29:43;17.00;55.70
13198;DHT22;6664;52.514;13.440;2023-08-24T01:32:32;17.10;55.70
13198;DHT22;6664;52.514;13.440;2023-08-24T01:35:19;17.10;55.90
13198;DHT22;6664;52.514;13.440;2023-08-24T01:38:08;17.10;55.70
13198;DHT22;6664;52.514;13.440;2023-08-24T01:41:20;17.20;55.40
13198;DHT22;6664;52.514;13.440;2023-08-24T01:44:12;17.30;54.50
13198;DHT22;6664;52.514;13.440;2023-08-24T01:46:59;17.40;54.40
13198;DHT22;6664;52.514;13.440;2023-08-24T01:49:47;17.50;53.40
13198;DHT22;6664;52.514;13.440;2023-08-24T01:52:34;17.60;53.30
13198;DHT22;6664;52.514;13.440;2023-08-24T01:55:21;17.70;53.30
13198;DHT22;6664;52.514;13.440;2023-08-24T01:58:08;17.70;52.40
13198;DHT22;6664;52.514;13.440;2023-08-24T02:00:54;17.80;52.50
13198;DHT22;6664;52.514;13.440;2023-08-24T02:03:39;17.80;52.70
13198;DHT22;6664;52.514;13.440;2023-08-24T02:06:25;17.70;52.80
13198;DHT22;6664;52.514;13.440;2023-08-24T02:09:12;17.70;53.30
13198;DHT22;6664;52.514;13.440;2023-08-24T02:11:57;17.60;54.10
13198;DHT22;6664;52.514;13.440;2023-08-24T02:14:43;17.60;54.90
13198;DHT22;6664;52.514;13.440;2023-08-24T02:17:31;17.70;55.30
13198;DHT22;6664;52.514;13.440;2023-08-24T02:20:19;17.80;55.20
13198;DHT22;6664;52.514;13.440;2023-08-24T02:23:05;18.00;54.90
13198;DHT22;6664;52.514;13.440;2023-08-24T02:25:53;18.10;54.50
13198;DHT22;6664;52.514;13.440;2023-08-24T02:28:38;18.20;53.80
13198;DHT22;6664;52.514;13.440;2023-08-24T02:31:24;18.30;53.40
13198;DHT22;6664;52.514;13.440;2023-08-24T02:34:10;18.30;52.80
13198;DHT22;6664;52.514;13.440;2023-08-24T02:36:56;18.40;52.00
13198;DHT22;6664;52.514;13.440;2023-08-24T02:39:42;18.50;51.80
13198;DHT22;6664;52.514;13.440;2023-08-24T02:42:30;18.60;51.40
13198;DHT22;6664;52.514;13.440;2023-08-24T02:45:17;18.70;51.00
13198;DHT22;6664;52.514;13.440;2023-08-24T02:48:03;18.70;50.60
13198;DHT22;6664;52.514;13.440;2023-08-24T02:50:48;18.80;50.10
13198;DHT22;6664;52.514;13.440;2023-08-24T02:53:34;18.80;49.80
13198;DHT22;6664;52.514;13.440;2023-08-24T02:56:19;18.90;45.70
13198;DHT22;6664;52.514;13.440;2023-08-24T02:59:05;18.90;47.70
13198;DHT22;6664;52.514;13.440;2023-08-24T03:01:51;18.90;48.40
13198;DHT22;6664;52.514;13.440;2023-08-24T03:04:38;18.90;48.40
13198;DHT22;6664;52.514;13.440;2023-08-24T03:07:24;18.90;48.30
13198;DHT22;6664;52.514;13.440;2023-08-24T03:10:13;19.00;48.20
13198;DHT22;6664;52.514;13.440;2023-08-24T03:12:59;18.90;47.60
13198;DHT22;6664;52.514;13.440;2023-08-24T03:15:45;18.90;46.30
13198;DHT22;6664;52.514;13.440;2023-08-24T03:18:30;19.00;45.20
13198;DHT22;6664;52.514;13.440;2023-08-24T03:21:15;19.00;45.40
13198;DHT22;6664;52.514;13.440;2023-08-24T03:24:01;19.00;44.30
13198;DHT22;6664;52.514;13.440;2023-08-24T03:26:49;19.10;43.60
13198;DHT22;6664;52.514;13.440;2023-08-24T03:29:34;19.10;42.60
13198;DHT22;6664;52.514;13.440;2023-08-24T03:32:20;19.10;41.00
13198;DHT22;6664;52.514;13.440;2023-08-24T03:35:06;19.20;40.30
13198;DHT22;6664;52.514;13.440;2023-08-24T03:37:53;19.20;40.30
13198;DHT22;6664;52.514;13.440;2023-08-24T03:40:39;19.20;39.90
13198;DHT22;6664;52.514;13.440;2023-08-24T03:43:25;19.20;39.30
13198;DHT22;6664;52.514;13.440;2023-08-24T03:46:11;19.20;39.00
13198;DHT22;6664;52.514;13.440;2023-08-24T03:48:57;19.20;38.80
13198;DHT22;6664;52.514;13.440;2023-08-24T03:51:42;19.20;38.90
13198;DHT22;6664;52.514;13.440;2023-08-24T03:54:28;19.20;39.00
13198;DHT22;6664;52.514;13.440;2023-08-24T03:57:14;19.20;38.70
13198;DHT22;6664;52.514;13.440;2023-08-24T03:59:59;19.20;38.10
13198;DHT22;6664;52.514;13.440;2023-08-24T04:02:45;19.20;37.80
13198;DHT22;6664;52.514;13.440;2023-08-24T04:05:31;19.20;37.80
13198;DHT22;6664;52.514;13.440;2023-08-24T04:08:16;19.20;36.90
13198;DHT22;6664;52.514;13.440;2023-08-24T04:11:03;19.30;36.30
13198;DHT22;6664;52.514;13.440;2023-08-24T04:13:48;19.30;35.80
13198;DHT22;6664;52.514;13.440;2023-08-24T04:16:36;19.30;34.90
13198;DHT22;6664;52.514;13.440;2023-08-24T04:19:24;19.30;35.70
13198;DHT22;6664;52.514;13.440;2023-08-24T04:22:10;19.30;34.90
13198;DHT22;6664;52.514;13.440;2023-08-24T04:24:55;19.30;34.90
13198;DHT22;6664;52.514;13.440;2023-08-24T04:27:44;19.30;35.60
13198;DHT22;6664;52.514;13.440;2023-08-24T04:30:29;19.30;36.00
13198;DHT22;6664;52.514;13.440;2023-08-24T04:33:15;19.30;35.20
13198;DHT22;6664;52.514;13.440;2023-08-24T04:36:02;19.30;35.60
13198;DHT22;6664;52.514;13.440;2023-08-24T04:38:50;19.30;34.70
13198;DHT22;6664;52.514;13.440;2023-08-24T04:41:35;19.30;35.00
13198;DHT22;6664;52.514;13.440;2023-08-24T04:44:22;19.30;36.60
13198;DHT22;6664;52.514;13.440;2023-08-24T04:47:07;19.30;36.90
13198;DHT22;6664;52.514;13.440;2023-08-24T04:49:55;19.30;35.50
13198;DHT22;6664;52.514;13.440;2023-08-24T04:52:41;19.20;34.80
13198;DHT22;6664;52.514;13.440;2023-08-24T04:55:29;19.20;36.10
13198;DHT22;6664;52.514;13.440;2023-08-24T04:58:15;19.00;36.20
13198;DHT22;6664;52.514;13.440;2023-08-24T05:01:00;19.00;36.90
13198;DHT22;6664;52.514;13.440;2023-08-24T05:03:46;19.00;36.50
13198;DHT22;6664;52.514;13.440;2023-08-24T05:06:31;19.00;36.50
13198;DHT22;6664;52.514;13.440;2023-08-24T05:09:17;19.00;36.60
13198;DHT22;6664;52.514;13.440;2023-08-24T05:12:06;19.10;37.10
13198;DHT22;6664;52.514;13.440;2023-08-24T05:14:51;19.20;35.40
13198;DHT22;6664;52.514;13.440;2023-08-24T05:17:40;19.40;34.10
13198;DHT22;6664;52.514;13.440;2023-08-24T05:20:26;19.50;33.40
13198;DHT22;6664;52.514;13.440;2023-08-24T05:23:12;19.50;33.60
13198;DHT22;6664;52.514;13.440;2023-08-24T05:25:58;19.50;34.60
13198;DHT22;6664;52.514;13.440;2023-08-24T05:28:44;19.50;34.00
13198;DHT22;6664;52.514;13.440;2023-08-24T05:31:32;19.60;33.60
13198;DHT22;6664;52.514;13.440;2023-08-24T05:34:17;19.70;33.60
13198;DHT22;6664;52.514;13.440;2023-08-24T05:37:03;19.80;33.30
13198;DHT22;6664;52.514;13.440;2023-08-24T05:39:48;19.80;33.70
13198;DHT22;6664;52.514;13.440;2023-08-24T05:42:34;19.90;33.90
13198;DHT22;6664;52.514;13.440;2023-08-24T05:45:21;20.00;32.30
13198;DHT22;6664;52.514;13.440;2023-08-24T05:48:10;20.00;33.10
13198;DHT22;6664;52.514;13.440;2023-08-24T05:50:59;20.00;32.70
13198;DHT22;6664;52.514;13.440;2023-08-24T05:53:45;20.00;32.90
13198;DHT22;6664;52.514;13.440;2023-08-24T05:56:30;20.00;33.20
13198;DHT22;6664;52.514;13.440;2023-08-24T05:59:16;20.00;32.50
13198;DHT22;6664;52.514;13.440;2023-08-24T06:02:03;19.90;33.60
13198;DHT22;6664;52.514;13.440;2023-08-24T06:04:48;19.90;33.80
13198;DHT22;6664;52.514;13.440;2023-08-24T06:07:36;19.80;33.70
13198;DHT22;6664;52.514;13.440;2023-08-24T06:10:22;19.70;34.40
13198;DHT22;6664;52.514;13.440;2023-08-24T06:13:07;19.60;34.60
13198;DHT22;6664;52.514;13.440;2023-08-24T06:15:55;19.70;33.80
13198;DHT22;6664;52.514;13.440;2023-08-24T06:18:41;19.70;34.10
13198;DHT22;6664;52.514;13.440;2023-08-24T06:21:27;19.70;33.60
13198;DHT22;6664;52.514;13.440;2023-08-24T06:24:14;19.80;33.40
13198;DHT22;6664;52.514;13.440;2023-08-24T06:27:02;19.90;33.00
13198;DHT22;6664;52.514;13.440;2023-08-24T06:29:48;19.90;32.60
13198;DHT22;6664;52.514;13.440;2023-08-24T06:32:33;20.00;32.00
13198;DHT22;6664;52.514;13.440;2023-08-24T06:35:19;20.10;31.70
13198;DHT22;6664;52.514;13.440;2023-08-24T06:38:07;20.10;31.20
13198;DHT22;6664;52.514;13.440;2023-08-24T06:40:54;20.10;31.50
13198;DHT22;6664;52.514;13.440;2023-08-24T06:43:40;20.20;31.40
13198;DHT22;6664;52.514;13.440;2023-08-24T06:46:25;20.30;30.40
13198;DHT22;6664;52.514;13.440;2023-08-24T06:49:11;20.40;29.70
13198;DHT22;6664;52.514;13.440;2023-08-24T06:51:56;20.50;29.10
13198;DHT22;6664;52.514;13.440;2023-08-24T06:54:42;20.50;29.10
13198;DHT22;6664;52.514;13.440;2023-08-24T06:57:30;20.60;28.70
13198;DHT22;6664;52.514;13.440;2023-08-24T07:00:17;20.70;29.00
13198;DHT22;6664;52.514;13.440;2023-08-24T07:03:09;20.60;29.00
13198;DHT22;6664;52.514;13.440;2023-08-24T07:05:55;20.70;29.00
13198;DHT22;6664;52.514;13.440;2023-08-24T07:08:41;20.70;28.30
13198;DHT22;6664;52.514;13.440;2023-08-24T07:11:26;20.70;28.30
13198;DHT22;6664;52.514;13.440;2023-08-24T07:14:14;20.80;28.20
13198;DHT22;6664;52.514;13.440;2023-08-24T07:16:59;20.90;27.70
13198;DHT22;6664;52.514;13.440;2023-08-24T07:19:45;21.00;27.30
13198;DHT22;6664;52.514;13.440;2023-08-24T07:22:35;21.10;27.40
13198;DHT22;6664;52.514;13.440;2023-08-24T07:25:21;21.10;26.90
13198;DHT22;6664;52.514;13.440;2023-08-24T07:28:06;21.20;26.80
13198;DHT22;6664;52.514;13.440;2023-08-24T07:30:53;21.20;26.40
13198;DHT22;6664;52.514;13.440;2023-08-24T07:33:43;21.20;26.40
13198;DHT22;6664;52.514;13.440;2023-08-24T07:36:30;21.40;25.90
13198;DHT22;6664;52.514;13.440;2023-08-24T07:39:15;21.40;25.30
13198;DHT22;6664;52.514;13.440;2023-08-24T07:42:04;21.50;25.20
13198;DHT22;6664;52.514;13.440;2023-08-24T07:44:49;21.70;24.10
13198;DHT22;6664;52.514;13.440;2023-08-24T07:47:38;21.70;23.80
13198;DHT22;6664;52.514;13.440;2023-08-24T07:50:24;21.70;24.10
13198;DHT22;6664;52.514;13.440;2023-08-24T07:53:09;21.90;23.50
13198;DHT22;6664;52.514;13.440;2023-08-24T07:55:55;21.90;23.90
13198;DHT22;6664;52.514;13.440;2023-08-24T07:58:43;22.10;22.80
13198;DHT22;6664;52.514;13.440;2023-08-24T08:01:28;22.20;22.30
13198;DHT22;6664;52.514;13.440;2023-08-24T08:04:14;22.50;21.60
13198;DHT22;6664;52.514;13.440;2023-08-24T08:07:00;22.80;20.80
13198;DHT22;6664;52.514;13.440;2023-08-24T08:09:45;23.20;19.80
13198;DHT22;6664;52.514;13.440;2023-08-24T08:12:33;23.40;17.70
13198;DHT22;6664;52.514;13.440;2023-08-24T08:15:19;23.70;17.80
13198;DHT22;6664;52.514;13.440;2023-08-24T08:18:08;23.90;17.50
13198;DHT22;6664;52.514;13.440;2023-08-24T08:20:56;23.90;16.80
13198;DHT22;6664;52.514;13.440;2023-08-24T08:23:44;24.00;15.90
13198;DHT22;6664;52.514;13.440;2023-08-24T08:26:32;24.20;14.70
13198;DHT22;6664;52.514;13.440;2023-08-24T08:29:20;24.80;13.90
13198;DHT22;6664;52.514;13.440;2023-08-24T08:32:06;25.10;12.20
13198;DHT22;6664;52.514;13.440;2023-08-24T08:34:54;24.90;12.00
13198;DHT22;6664;52.514;13.440;2023-08-24T08:37:42;24.80;11.60
13198;DHT22;6664;52.514;13.440;2023-08-24T08:40:36;24.90;12.00
13198;DHT22;6664;52.514;13.440;2023-08-24T08:43:22;24.80;11.70
13198;DHT22;6664;52.514;13.440;2023-08-24T08:46:08;24.80;12.30
13198;DHT22;6664;52.514;13.440;2023-08-24T08:49:00;24.80;11.40
13198;DHT22;6664;52.514;13.440;2023-08-24T08:51:46;25.00;11.00
13198;DHT22;6664;52.514;13.440;2023-08-24T08:54:32;25.00;11.00
13198;DHT22;6664;52.514;13.440;2023-08-24T08:57:23;25.20;10.60
13198;DHT22;6664;52.514;13.440;2023-08-24T09:00:11;25.40;9.50
13198;DHT22;6664;52.514;13.440;2023-08-24T09:03:00;25.50;9.60
13198;DHT22;6664;52.514;13.440;2023-08-24T09:05:47;25.60;9.70
13198;DHT22;6664;52.514;13.440;2023-08-24T09:08:35;25.20;10.40
13198;DHT22;6664;52.514;13.440;2023-08-24T09:11:22;24.70;11.30
13198;DHT22;6664;52.514;13.440;2023-08-24T09:14:08;24.60;12.20
13198;DHT22;6664;52.514;13.440;2023-08-24T09:16:54;24.90;12.50
13198;DHT22;6664;52.514;13.440;2023-08-24T09:19:40;25.20;12.00
13198;DHT22;6664;52.514;13.440;2023-08-24T09:22:26;25.30;10.60
13198;DHT22;6664;52.514;13.440;2023-08-24T09:25:12;25.30;11.20
13198;DHT22;6664;52.514;13.440;2023-08-24T09:28:02;25.10;10.80
13198;DHT22;6664;52.514;13.440;2023-08-24T09:30:55;24.70;12.00
13198;DHT22;6664;52.514;13.440;2023-08-24T09:33:43;24.50;12.00
13198;DHT22;6664;52.514;13.440;2023-08-24T09:36:34;24.40;12.60
13198;DHT22;6664;52.514;13.440;2023-08-24T09:39:20;24.30;13.40
13198;DHT22;6664;52.514;13.440;2023-08-24T09:42:06;24.30;13.60
13198;DHT22;6664;52.514;13.440;2023-08-24T09:44:51;24.30;13.60
13198;DHT22;6664;52.514;13.440;2023-08-24T09:47:39;24.10;14.10
13198;DHT22;6664;52.514;13.440;2023-08-24T09:50:26;23.80;14.70
13198;DHT22;6664;52.514;13.440;2023-08-24T09:56:04;23.60;14.80
13198;DHT22;6664;52.514;13.440;2023-08-24T09:58:54;23.60;12.50
13198;DHT22;6664;52.514;13.440;2023-08-24T10:01:44;23.60;13.20
13198;DHT22;6664;52.514;13.440;2023-08-24T10:04:34;23.60;14.00
13198;DHT22;6664;52.514;13.440;2023-08-24T10:07:25;23.50;13.60
13198;DHT22;6664;52.514;13.440;2023-08-24T10:10:12;23.50;13.10
13198;DHT22;6664;52.514;13.440;2023-08-24T10:13:04;23.60;13.20
13198;DHT22;6664;52.514;13.440;2023-08-24T10:15:56;23.70;13.30
13198;DHT22;6664;52.514;13.440;2023-08-24T10:18:42;23.70;13.30
13198;DHT22;6664;52.514;13.440;2023-08-24T10:21:28;23.80;13.20
13198;DHT22;6664;52.514;13.440;2023-08-24T10:24:14;23.80;12.80
13198;DHT22;6664;52.514;13.440;2023-08-24T10:27:02;23.80;12.10
13198;DHT22;6664;52.514;13.440;2023-08-24T10:29:49;23.90;13.00
13198;DHT22;6664;52.514;13.440;2023-08-24T10:32:34;24.00;12.90
13198;DHT22;6664;52.514;13.440;2023-08-24T10:35:21;24.20;12.00
13198;DHT22;6664;52.514;13.440;2023-08-24T10:38:07;24.10;12.00
13198;DHT22;6664;52.514;13.440;2023-08-24T10:40:54;24.20;11.50
13198;DHT22;6664;52.514;13.440;2023-08-24T10:43:40;24.30;12.20
13198;DHT22;6664;52.514;13.440;2023-08-24T10:46:26;24.40;11.90
13198;DHT22;6664;52.514;13.440;2023-08-24T10:49:18;24.40;12.10
13198;DHT22;6664;52.514;13.440;2023-08-24T10:52:21;24.50;11.70
13198;DHT22;6664;52.514;13.440;2023-08-24T10:55:23;24.60;11.50
13198;DHT22;6664;52.514;13.440;2023-08-24T10:58:15;24.70;10.30
13198;DHT22;6664;52.514;13.440;2023-08-24T11:01:02;24.80;10.50
13198;DHT22;6664;52.514;13.440;2023-08-24T11:03:51;24.90;10.50
13198;DHT22;6664;52.514;13.440;2023-08-24T11:06:58;25.00;10.40
13198;DHT22;6664;52.514;13.440;2023-08-24T11:09:48;25.20;10.30
13198;DHT22;6664;52.514;13.440;2023-08-24T11:15:52;25.50;10.40
13198;DHT22;6664;52.514;13.440;2023-08-24T11:18:42;25.70;9.90
13198;DHT22;6664;52.514;13.440;2023-08-24T11:21:28;25.80;9.80
13198;DHT22;6664;52.514;13.440;2023-08-24T11:24:15;26.00;9.80
13198;DHT22;6664;52.514;13.440;2023-08-24T11:27:02;26.20;9.20
13198;DHT22;6664;52.514;13.440;2023-08-24T11:29:58;26.20;8.30
13198;DHT22;6664;52.514;13.440;2023-08-24T11:32:51;26.30;8.40
13198;DHT22;6664;52.514;13.440;2023-08-24T11:35:43;26.30;8.10
13198;DHT22;6664;52.514;13.440;2023-08-24T11:38:40;26.50;8.40
13198;DHT22;6664;52.514;13.440;2023-08-24T11:41:26;26.60;7.70
13198;DHT22;6664;52.514;13.440;2023-08-24T11:44:14;26.60;7.90
13198;DHT22;6664;52.514;13.440;2023-08-24T11:47:13;26.70;8.20
13198;DHT22;6664;52.514;13.440;2023-08-24T11:49:59;26.70;7.30
13198;DHT22;6664;52.514;13.440;2023-08-24T11:52:47;27.00;7.50
13198;DHT22;6664;52.514;13.440;2023-08-24T11:55:33;27.20;6.70
13198;DHT22;6664;52.514;13.440;2023-08-24T11:58:19;27.20;5.90
13198;DHT22;6664;52.514;13.440;2023-08-24T12:01:11;27.10;5.20
13198;DHT22;6664;52.514;13.440;2023-08-24T12:03:58;27.20;5.40
13198;DHT22;6664;52.514;13.440;2023-08-24T12:06:47;27.30;4.80
13198;DHT22;6664;52.514;13.440;2023-08-24T12:09:35;27.10;3.80
13198;DHT22;6664;52.514;13.440;2023-08-24T12:12:26;27.10;3.60
13198;DHT22;6664;52.514;13.440;2023-08-24T12:15:19;27.20;4.40
13198;DHT22;6664;52.514;13.440;2023-08-24T12:18:13;27.20;3.90
13198;DHT22;6664;52.514;13.440;2023-08-24T12:21:03;27.40;3.70
13198;DHT22;6664;52.514;13.440;2023-08-24T12:24:05;27.70;3.20
13198;DHT22;6664;52.514;13.440;2023-08-24T12:26:57;28.20;2.10
13198;DHT22;6664;52.514;13.440;2023-08-24T12:29:46;28.70;1.50
13198;DHT22;6664;52.514;13.440;2023-08-24T12:32:45;29.20;1.80
13198;DHT22;6664;52.514;13.440;2023-08-24T12:35:31;30.10;1.00
13198;DHT22;6664;52.514;13.440;2023-08-24T12:38:16;31.20;1.00
13198;DHT22;6664;52.514;13.440;2023-08-24T12:41:03;32.10;1.00
13198;DHT22;6664;52.514;13.440;2023-08-24T12:43:49;36.20;1.00
13198;DHT22;6664;52.514;13.440;2023-08-24T12:46:35;38.90;1.00
13198;DHT22;6664;52.514;13.440;2023-08-24T12:49:20;42.80;1.00
13198;DHT22;6664;52.514;13.440;2023-08-24T12:52:06;43.40;1.00
13198;DHT22;6664;52.514;13.440;2023-08-24T12:54:52;44.90;1.00
13198;DHT22;6664;52.514;13.440;2023-08-24T12:57:38;45.80;1.00
13198;DHT22;6664;52.514;13.440;2023-08-24T13:00:26;48.10;1.00
13198;DHT22;6664;52.514;13.440;2023-08-24T13:03:13;47.60;1.00
13198;DHT22;6664;52.514;13.440;2023-08-24T13:05:59;49.00;1.00
13198;DHT22;6664;52.514;13.440;2023-08-24T13:09:05;51.40;1.00
13198;DHT22;6664;52.514;13.440;2023-08-24T13:11:51;53.60;1.00
13198;DHT22;6664;52.514;13.440;2023-08-24T13:14:37;52.50;1.00
13198;DHT22;6664;52.514;13.440;2023-08-24T13:17:23;52.70;1.00
13198;DHT22;6664;52.514;13.440;2023-08-24T13:20:08;52.20;1.00
13198;DHT22;6664;52.514;13.440;2023-08-24T13:22:54;54.10;1.00
13198;DHT22;6664;52.514;13.440;2023-08-24T13:25:42;55.20;1.00
13198;DHT22;6664;52.514;13.440;2023-08-24T13:28:27;55.90;1.00
13198;DHT22;6664;52.514;13.440;2023-08-24T13:31:15;58.90;1.00
13198;DHT22;6664;52.514;13.440;2023-08-24T13:34:01;59.90;1.00
13198;DHT22;6664;52.514;13.440;2023-08-24T13:36:49;59.10;1.00
13198;DHT22;6664;52.514;13.440;2023-08-24T13:39:35;59.80;1.00
13198;DHT22;6664;52.514;13.440;2023-08-24T13:42:21;61.30;1.00
13198;DHT22;6664;52.514;13.440;2023-08-24T13:45:07;53.50;1.00
13198;DHT22;6664;52.514;13.440;2023-08-24T13:47:53;49.50;1.00
13198;DHT22;6664;52.514;13.440;2023-08-24T13:50:41;52.50;1.00
13198;DHT22;6664;52.514;13.440;2023-08-24T13:53:27;54.50;1.00
13198;DHT22;6664;52.514;13.440;2023-08-24T13:56:16;55.70;1.00
13198;DHT22;6664;52.514;13.440;2023-08-24T13:59:02;56.20;1.00
13198;DHT22;6664;52.514;13.440;2023-08-24T14:01:48;56.90;1.00
13198;DHT22;6664;52.514;13.440;2023-08-24T14:04:34;57.10;1.00
13198;DHT22;6664;52.514;13.440;2023-08-24T14:07:20;56.20;1.00
13198;DHT22;6664;52.514;13.440;2023-08-24T14:10:06;55.10;1.00
13198;DHT22;6664;52.514;13.440;2023-08-24T14:12:53;52.80;1.00
13198;DHT22;6664;52.514;13.440;2023-08-24T14:15:39;52.50;1.00
13198;DHT22;6664;52.514;13.440;2023-08-24T14:18:25;51.50;1.00
13198;DHT22;6664;52.514;13.440;2023-08-24T14:21:11;49.30;1.00
13198;DHT22;6664;52.514;13.440;2023-08-24T14:24:00;46.70;1.00
13198;DHT22;6664;52.514;13.440;2023-08-24T14:26:45;46.60;1.00
13198;DHT22;6664;52.514;13.440;2023-08-24T14:29:31;47.70;1.00
13198;DHT22;6664;52.514;13.440;2023-08-24T14:32:16;49.30;1.00
13198;DHT22;6664;52.514;13.440;2023-08-24T14:35:03;50.80;1.00
13198;DHT22;6664;52.514;13.440;2023-08-24T14:37:49;51.10;1.00
13198;DHT22;6664;52.514;13.440;2023-08-24T14:40:37;46.70;1.00
13198;DHT22;6664;52.514;13.440;2023-08-24T14:43:23;43.40;1.00
13198;DHT22;6664;52.514;13.440;2023-08-24T14:46:09;41.70;1.00
13198;DHT22;6664;52.514;13.440;2023-08-24T14:48:54;39.70;1.00
13198;DHT22;6664;52.514;13.440;2023-08-24T14:51:40;38.00;1.00
13198;DHT22;6664;52.514;13.440;2023-08-24T14:54:27;37.10;1.00
13198;DHT22;6664;52.514;13.440;2023-08-24T14:57:13;36.00;1.00
13198;DHT22;6664;52.514;13.440;2023-08-24T15:00:03;35.50;1.00
13198;DHT22;6664;52.514;13.440;2023-08-24T15:02:50;34.60;1.00
13198;DHT22;6664;52.514;13.440;2023-08-24T15:05:55;34.20;1.00
13198;DHT22;6664;52.514;13.440;2023-08-24T15:08:41;34.30;1.00
13198;DHT22;6664;52.514;13.440;2023-08-24T15:11:29;34.30;1.00
13198;DHT22;6664;52.514;13.440;2023-08-24T15:14:14;34.20;1.00
13198;DHT22;6664;52.514;13.440;2023-08-24T15:17:02;33.40;1.00
13198;DHT22;6664;52.514;13.440;2023-08-24T15:19:50;32.60;1.00
13198;DHT22;6664;52.514;13.440;2023-08-24T15:22:36;31.70;1.00
13198;DHT22;6664;52.514;13.440;2023-08-24T15:25:22;31.20;1.00
13198;DHT22;6664;52.514;13.440;2023-08-24T15:28:10;30.80;1.00
13198;DHT22;6664;52.514;13.440;2023-08-24T15:30:57;30.60;1.00
13198;DHT22;6664;52.514;13.440;2023-08-24T15:33:45;30.50;1.00
13198;DHT22;6664;52.514;13.440;2023-08-24T15:36:32;31.60;1.00
13198;DHT22;6664;52.514;13.440;2023-08-24T15:39:17;33.70;1.00
13198;DHT22;6664;52.514;13.440;2023-08-24T15:42:06;33.60;1.00
13198;DHT22;6664;52.514;13.440;2023-08-24T15:44:52;32.60;1.00
13198;DHT22;6664;52.514;13.440;2023-08-24T15:47:40;31.80;1.00
13198;DHT22;6664;52.514;13.440;2023-08-24T15:50:27;30.80;1.00
13198;DHT22;6664;52.514;13.440;2023-08-24T15:53:15;30.60;1.00
13198;DHT22;6664;52.514;13.440;2023-08-24T15:56:01;30.40;1.00
13198;DHT22;6664;52.514;13.440;2023-08-24T15:58:46;30.30;1.00
13198;DHT22;6664;52.514;13.440;2023-08-24T16:01:32;29.70;1.00
13198;DHT22;6664;52.514;13.440;2023-08-24T16:04:19;29.50;1.00
13198;DHT22;6664;52.514;13.440;2023-08-24T16:07:06;29.60;1.00
13198;DHT22;6664;52.514;13.440;2023-08-24T16:09:52;29.40;1.00
13198;DHT22;6664;52.514;13.440;2023-08-24T16:12:38;29.30;1.00
13198;DHT22;6664;52.514;13.440;2023-08-24T16:15:23;29.30;1.00
13198;DHT22;6664;52.514;13.440;2023-08-24T16:18:11;29.20;1.00
13198;DHT22;6664;52.514;13.440;2023-08-24T16:20:57;29.10;1.00
13198;DHT22;6664;52.514;13.440;2023-08-24T16:23:42;28.90;1.00
13198;DHT22;6664;52.514;13.440;2023-08-24T16:26:28;28.90;1.00
13198;DHT22;6664;52.514;13.440;2023-08-24T16:29:16;28.90;1.00
13198;DHT22;6664;52.514;13.440;2023-08-24T16:32:02;28.80;1.00
13198;DHT22;6664;52.514;13.440;2023-08-24T16:34:47;28.70;1.00
13198;DHT22;6664;52.514;13.440;2023-08-24T16:37:33;28.50;1.00
13198;DHT22;6664;52.514;13.440;2023-08-24T16:40:18;28.40;1.00
13198;DHT22;6664;52.514;13.440;2023-08-24T16:43:03;28.20;1.00
13198;DHT22;6664;52.514;13.440;2023-08-24T16:45:49;28.00;1.00
13198;DHT22;6664;52.514;13.440;2023-08-24T16:48:35;27.90;1.00
13198;DHT22;6664;52.514;13.440;2023-08-24T16:51:20;27.70;1.00
13198;DHT22;6664;52.514;13.440;2023-08-24T16:54:07;27.40;1.00
13198;DHT22;6664;52.514;13.440;2023-08-24T16:56:52;27.40;1.00
13198;DHT22;6664;52.514;13.440;2023-08-24T16:59:38;27.30;1.00
13198;DHT22;6664;52.514;13.440;2023-08-24T17:02:23;27.20;1.00
13198;DHT22;6664;52.514;13.440;2023-08-24T17:05:09;27.10;1.00
13198;DHT22;6664;52.514;13.440;2023-08-24T17:08:08;27.00;1.00
13198;DHT22;6664;52.514;13.440;2023-08-24T17:10:54;26.90;1.00
13198;DHT22;6664;52.514;13.440;2023-08-24T17:13:42;26.70;1.00
13198;DHT22;6664;52.514;13.440;2023-08-24T17:16:27;26.40;2.60
13198;DHT22;6664;52.514;13.440;2023-08-24T17:19:15;26.20;3.20
13198;DHT22;6664;52.514;13.440;2023-08-24T17:22:03;26.10;4.40
13198;DHT22;6664;52.514;13.440;2023-08-24T17:24:49;25.90;5.00
13198;DHT22;6664;52.514;13.440;2023-08-24T17:27:37;25.70;5.50
13198;DHT22;6664;52.514;13.440;2023-08-24T17:30:22;25.50;6.70
13198;DHT22;6664;52.514;13.440;2023-08-24T17:33:08;25.40;7.40
13198;DHT22;6664;52.514;13.440;2023-08-24T17:35:59;25.30;8.60
13198;DHT22;6664;52.514;13.440;2023-08-24T17:38:45;25.10;9.10
13198;DHT22;6664;52.514;13.440;2023-08-24T17:41:41;24.80;9.20
13198;DHT22;6664;52.514;13.440;2023-08-24T17:44:26;24.70;9.70
13198;DHT22;6664;52.514;13.440;2023-08-24T17:47:17;24.50;9.80
13198;DHT22;6664;52.514;13.440;2023-08-24T17:50:04;24.30;9.60
13198;DHT22;6664;52.514;13.440;2023-08-24T17:52:49;24.20;11.50
13198;DHT22;6664;52.514;13.440;2023-08-24T17:55:36;24.10;9.60
13198;DHT22;6664;52.514;13.440;2023-08-24T17:58:25;24.00;12.50